createdAt,value
2022-12-13T00:01:57.954Z,40.00
2022-12-13T00:04:27.135Z,41.33
2022-12-13T00:06:54.904Z,36.50
2022-12-13T00:09:23.756Z,34.00
2022-12-13T00:11:52.349Z,39.00
2022-12-13T00:14:20.153Z,43.00
2022-12-13T00:16:50.701Z,41.33
2022-12-13T00:19:19.745Z,38.50
2022-12-13T00:21:49.091Z,35.67
2022-12-13T00:24:16.917Z,44.00
2022-12-13T00:26:46.438Z,44.33
2022-12-13T00:29:15.201Z,42.50
2022-12-13T00:31:59.416Z,43.50
2022-12-13T00:34:29.664Z,41.50
2022-12-13T00:36:59.565Z,36.50
2022-12-13T00:39:28.236Z,44.50
2022-12-13T00:41:56.500Z,42.50
2022-12-13T00:44:24.676Z,34.00
2022-12-13T00:46:54.743Z,49.33
2022-12-13T00:49:23.899Z,46.00
2022-12-13T00:51:52.683Z,48.50
2022-12-13T00:54:21.427Z,45.50
2022-12-13T00:56:51.710Z,43.00
2022-12-13T00:59:20.625Z,49.50
2022-12-13T01:01:49.635Z,57.00
2022-12-13T01:04:18.369Z,57.00
2022-12-13T01:06:50.154Z,45.50
2022-12-13T01:09:29.988Z,49.50
2022-12-13T01:12:05.962Z,43.00
2022-12-13T01:14:38.166Z,46.00
2022-12-13T01:17:08.213Z,51.00
2022-12-13T01:19:37.700Z,46.67
2022-12-13T01:22:07.967Z,45.50
2022-12-13T01:24:36.973Z,47.50
2022-12-13T01:27:05.802Z,45.50
2022-12-13T01:29:34.507Z,47.00
2022-12-13T01:32:03.198Z,45.00
2022-12-13T01:34:31.014Z,44.50
2022-12-13T01:36:59.034Z,51.00
2022-12-13T01:39:28.865Z,40.00
2022-12-13T01:41:59.994Z,41.00
2022-12-13T01:44:56.518Z,44.50
2022-12-13T01:47:49.599Z,44.50
2022-12-13T01:50:33.263Z,43.00
2022-12-13T01:53:03.282Z,46.50
2022-12-13T01:55:41.551Z,39.50
2022-12-13T01:58:09.706Z,45.00
2022-12-13T02:00:40.887Z,45.33
2022-12-13T02:03:21.459Z,47.00
2022-12-13T02:06:09.671Z,38.50
2022-12-13T02:08:39.853Z,43.00
2022-12-13T02:11:08.349Z,43.00
2022-12-13T02:13:38.900Z,45.00
2022-12-13T02:16:35.982Z,43.00
2022-12-13T02:20:00.615Z,44.00
2022-12-13T02:23:09.923Z,45.00
2022-12-13T02:26:40.787Z,45.00
2022-12-13T02:29:49.429Z,47.00
2022-12-13T02:32:38.055Z,42.00
2022-12-13T02:35:11.482Z,45.00
2022-12-13T02:38:14.333Z,48.50
2022-12-13T02:41:27.834Z,43.00
2022-12-13T02:44:21.807Z,45.50
2022-12-13T02:47:39.829Z,48.00
2022-12-13T02:50:11.364Z,47.00
2022-12-13T02:52:43.102Z,45.00
2022-12-13T02:55:16.493Z,48.00
2022-12-13T02:57:48.665Z,48.00
2022-12-13T03:00:23.860Z,47.50
2022-12-13T03:03:24.241Z,47.00
2022-12-13T03:06:33.696Z,48.00
2022-12-13T03:09:49.118Z,45.00
2022-12-13T03:13:07.182Z,44.00
2022-12-13T03:15:57.025Z,45.00
2022-12-13T03:18:30.869Z,45.00
2022-12-13T03:21:07.124Z,48.00
2022-12-13T03:23:38.176Z,48.00
2022-12-13T03:26:24.934Z,44.00
2022-12-13T03:29:03.130Z,46.00
2022-12-13T03:31:56.618Z,21.33
2022-12-13T03:34:25.417Z,50.00
2022-12-13T03:37:11.728Z,47.00
2022-12-13T03:39:40.522Z,49.00
2022-12-13T03:42:09.503Z,45.00
2022-12-13T03:44:38.201Z,48.50
2022-12-13T03:47:06.919Z,45.00
2022-12-13T03:49:35.872Z,50.50
2022-12-13T03:52:03.907Z,45.00
2022-12-13T03:54:33.420Z,48.67
2022-12-13T03:57:02.015Z,54.00
2022-12-13T03:59:29.876Z,48.00
2022-12-13T04:01:58.569Z,48.50
2022-12-13T04:04:27.255Z,48.00
2022-12-13T04:06:55.980Z,45.00
2022-12-13T04:09:24.745Z,42.50
2022-12-13T04:12:11.134Z,52.00
2022-12-13T04:14:38.890Z,46.00
2022-12-13T04:17:07.621Z,48.50
2022-12-13T04:19:37.071Z,44.00
2022-12-13T04:22:05.829Z,48.00
2022-12-13T04:24:34.594Z,52.00
2022-12-13T04:27:02.903Z,41.00
2022-12-13T04:29:33.719Z,38.50
2022-12-13T04:32:05.076Z,47.00
2022-12-13T04:34:37.538Z,47.00
2022-12-13T04:37:06.335Z,51.50
2022-12-13T04:39:35.508Z,45.50
2022-12-13T04:42:03.504Z,48.50
2022-12-13T04:44:36.819Z,49.00
2022-12-13T04:47:05.549Z,46.00
2022-12-13T04:49:35.271Z,43.00
2022-12-13T04:52:03.402Z,30.50
2022-12-13T04:54:36.063Z,44.00
2022-12-13T04:57:11.790Z,43.50
2022-12-13T04:59:40.837Z,48.50
2022-12-13T05:02:11.257Z,51.00
2022-12-13T05:04:40.075Z,48.00
2022-12-13T05:07:07.939Z,48.00
2022-12-13T05:09:36.730Z,50.00
2022-12-13T05:12:22.014Z,63.00
2022-12-13T05:14:54.046Z,63.00
2022-12-13T05:17:23.178Z,54.00
2022-12-13T05:19:52.720Z,54.67
2022-12-13T05:22:21.498Z,53.00
2022-12-13T05:24:50.609Z,56.00
2022-12-13T05:27:25.612Z,52.00
2022-12-13T05:30:02.771Z,53.00
2022-12-13T05:32:43.348Z,48.00
2022-12-13T05:35:22.262Z,52.00
2022-12-13T05:37:53.772Z,52.00
2022-12-13T05:40:27.761Z,50.00
2022-12-13T05:43:01.674Z,48.00
2022-12-13T05:45:33.745Z,49.00
2022-12-13T05:48:02.569Z,49.00
2022-12-13T05:50:31.411Z,49.00
2022-12-13T05:53:00.216Z,54.00
2022-12-13T05:55:28.933Z,51.67
2022-12-13T05:58:02.432Z,56.00
2022-12-13T06:00:31.986Z,60.50
2022-12-13T06:03:01.725Z,54.00
2022-12-13T06:05:31.295Z,54.00
2022-12-13T06:07:59.545Z,52.00
2022-12-13T06:10:35.042Z,58.33
2022-12-13T06:13:22.117Z,51.00
2022-12-13T06:16:01.972Z,48.00
2022-12-13T06:18:34.490Z,51.00
2022-12-13T06:21:07.336Z,48.50
2022-12-13T06:23:36.167Z,53.00
2022-12-13T06:26:07.588Z,51.50
2022-12-13T06:28:36.441Z,49.67
2022-12-13T06:31:05.538Z,52.00
2022-12-13T06:33:39.153Z,87.67
2022-12-13T06:36:09.024Z,54.00
2022-12-13T06:38:43.503Z,38.50
2022-12-13T06:41:16.939Z,48.00
2022-12-13T06:43:47.847Z,55.50
2022-12-13T06:46:16.936Z,50.50
2022-12-13T06:48:45.202Z,48.50
2022-12-13T06:51:13.188Z,54.00
2022-12-13T06:53:51.804Z,52.00
2022-12-13T06:56:20.578Z,32.67
2022-12-13T06:58:48.600Z,52.00
2022-12-13T07:01:24.261Z,55.00
2022-12-13T07:03:56.724Z,51.00
2022-12-13T07:06:26.400Z,53.00
2022-12-13T07:08:58.301Z,55.00
2022-12-13T07:11:33.347Z,52.00
2022-12-13T07:14:02.113Z,49.00
2022-12-13T07:16:30.121Z,57.00
2022-12-13T07:19:01.876Z,54.67
2022-12-13T07:21:32.334Z,52.67
2022-12-13T07:24:02.228Z,53.00
2022-12-13T07:26:30.099Z,52.00
2022-12-13T07:28:57.959Z,55.50
2022-12-13T07:31:26.864Z,56.00
2022-12-13T07:33:56.480Z,73.00
2022-12-13T07:36:24.873Z,56.00
2022-12-13T07:38:57.435Z,53.50
2022-12-13T07:41:27.736Z,55.50
2022-12-13T07:43:57.381Z,72.33
2022-12-13T07:46:32.525Z,72.33
2022-12-13T07:49:05.123Z,61.67
2022-12-13T07:51:35.755Z,59.33
2022-12-13T07:54:06.262Z,63.33
2022-12-13T07:56:36.484Z,55.50
2022-12-13T07:59:05.577Z,62.50
2022-12-13T08:01:35.495Z,58.00
2022-12-13T08:04:05.551Z,58.33
2022-12-13T08:06:39.572Z,57.00
2022-12-13T08:09:08.237Z,51.50
2022-12-13T08:11:37.020Z,57.00
2022-12-13T08:14:07.362Z,63.33
2022-12-13T08:16:37.022Z,65.00
2022-12-13T08:19:06.599Z,69.00
2022-12-13T08:22:01.796Z,62.67
2022-12-13T08:24:31.876Z,51.50
2022-12-13T08:27:03.440Z,53.00
2022-12-13T08:29:36.477Z,56.50
2022-12-13T08:32:10.774Z,64.67
2022-12-13T08:34:41.465Z,60.50
2022-12-13T08:37:09.712Z,53.00
2022-12-13T08:39:39.368Z,56.00
2022-12-13T08:42:19.427Z,60.00
2022-12-13T08:44:52.324Z,58.33
2022-12-13T08:47:26.881Z,57.33
2022-12-13T08:50:01.933Z,49.50
2022-12-13T08:52:40.606Z,47.00
2022-12-13T08:55:15.725Z,49.00
2022-12-13T08:57:45.664Z,47.00
2022-12-13T09:00:20.023Z,49.67
2022-12-13T09:02:49.594Z,41.00
2022-12-13T09:05:34.149Z,35.50
2022-12-13T09:08:23.123Z,40.50
2022-12-13T09:11:11.462Z,43.00
2022-12-13T09:13:52.875Z,39.33
2022-12-13T09:16:35.671Z,37.50
2022-12-13T09:19:25.467Z,34.00
2022-12-13T09:22:02.804Z,30.50
2022-12-13T09:24:35.795Z,35.00
2022-12-13T09:27:09.601Z,46.33
2022-12-13T09:29:39.699Z,43.33
2022-12-13T09:32:09.234Z,39.67
2022-12-13T09:34:39.503Z,31.50
2022-12-13T09:37:09.252Z,39.33
2022-12-13T09:39:38.771Z,40.67
2022-12-13T09:42:23.026Z,46.00
2022-12-13T09:45:05.469Z,45.00
2022-12-13T09:47:47.535Z,40.50
2022-12-13T09:50:38.511Z,33.50
2022-12-13T09:53:12.050Z,35.00
2022-12-13T09:55:52.555Z,30.00
2022-12-13T09:58:31.904Z,43.00
2022-12-13T10:01:00.709Z,39.00
2022-12-13T10:03:30.021Z,34.50
2022-12-13T10:06:09.212Z,36.00
2022-12-13T10:08:57.695Z,37.00
2022-12-13T10:11:31.384Z,42.00
2022-12-13T10:14:36.667Z,36.50
2022-12-13T10:17:09.479Z,37.00
2022-12-13T10:19:46.732Z,39.00
2022-12-13T10:22:19.915Z,26.50
2022-12-13T10:25:06.114Z,30.00
2022-12-13T10:27:45.532Z,27.50
2022-12-13T10:30:29.006Z,36.50
2022-12-13T10:33:01.512Z,36.50
2022-12-13T10:35:38.165Z,30.50
2022-12-13T10:38:16.756Z,31.67
2022-12-13T10:40:46.727Z,28.00
2022-12-13T10:43:21.168Z,26.50
2022-12-13T10:46:04.179Z,24.00
2022-12-13T10:48:41.305Z,30.00
2022-12-13T10:51:18.721Z,27.50
2022-12-13T10:53:55.415Z,26.00
2022-12-13T10:56:37.712Z,29.50
2022-12-13T10:59:38.773Z,24.00
2022-12-13T11:02:37.794Z,24.50
2022-12-13T11:05:33.464Z,32.50
2022-12-13T11:08:27.057Z,25.00
2022-12-13T11:11:04.522Z,35.50
2022-12-13T11:13:57.141Z,24.00
2022-12-13T11:16:35.649Z,27.00
2022-12-13T11:19:18.820Z,30.00
2022-12-13T11:21:50.954Z,29.50
2022-12-13T11:24:36.148Z,25.00
2022-12-13T11:28:26.636Z,27.50
2022-12-13T11:31:07.981Z,25.00
2022-12-13T11:34:42.451Z,29.50
2022-12-13T11:38:11.253Z,29.33
2022-12-13T11:40:46.740Z,24.00
2022-12-13T11:43:42.690Z,24.00
2022-12-13T11:46:20.993Z,11.20
2022-12-13T11:49:20.755Z,20.00
2022-12-13T11:52:00.177Z,22.00
2022-12-13T11:55:20.553Z,19.00
2022-12-13T11:58:16.651Z,25.00
2022-12-13T12:01:07.034Z,22.00
2022-12-13T12:03:48.330Z,43.00
2022-12-13T12:06:43.855Z,16.67
2022-12-13T12:09:19.456Z,37.50
2022-12-13T12:12:11.928Z,32.50
2022-12-13T12:15:05.185Z,17.00
2022-12-13T12:17:44.927Z,20.33
2022-12-13T12:20:40.688Z,23.50
2022-12-13T12:23:44.381Z,31.50
2022-12-13T12:26:18.718Z,18.67
2022-12-13T12:29:26.124Z,13.50
2022-12-13T12:32:20.558Z,19.00
2022-12-13T12:35:34.194Z,27.50
2022-12-13T12:38:44.657Z,20.00
2022-12-13T12:41:53.081Z,25.50
2022-12-13T12:44:34.124Z,26.00
2022-12-13T12:50:48.838Z,22.00
2022-12-13T12:54:08.449Z,25.50
2022-12-13T12:57:17.300Z,24.00
2022-12-13T13:00:21.916Z,28.50
2022-12-13T13:03:12.075Z,30.50
2022-12-13T13:06:06.899Z,37.00
2022-12-13T13:08:56.829Z,41.33
2022-12-13T13:11:31.413Z,28.50
2022-12-13T13:14:03.034Z,29.00
2022-12-13T13:16:39.626Z,31.67
2022-12-13T13:19:17.452Z,30.00
2022-12-13T13:22:01.671Z,36.00
2022-12-13T13:24:34.832Z,36.00
2022-12-13T13:27:10.376Z,37.00
2022-12-13T13:29:43.471Z,23.00
2022-12-13T13:32:28.326Z,36.00
2022-12-13T13:35:43.007Z,32.00
2022-12-13T13:38:49.934Z,24.00
2022-12-13T13:41:56.774Z,24.00
2022-12-13T13:44:45.848Z,24.00
2022-12-13T13:47:41.302Z,26.00
2022-12-13T13:50:08.992Z,29.00
2022-12-13T13:53:29.583Z,24.67
2022-12-13T13:56:32.628Z,30.00
2022-12-13T13:59:54.323Z,45.50
2022-12-13T14:03:33.171Z,42.00
2022-12-13T14:07:00.736Z,65.33
2022-12-13T14:10:19.532Z,21.00
2022-12-13T14:13:46.698Z,39.50
2022-12-13T14:16:48.694Z,36.50
2022-12-13T14:20:22.003Z,33.50
2022-12-13T14:23:21.888Z,36.50
2022-12-13T14:26:44.261Z,43.00
2022-12-13T14:29:32.176Z,45.00
2022-12-13T14:32:01.371Z,41.50
2022-12-13T14:34:34.551Z,48.00
2022-12-13T14:37:24.009Z,48.50
2022-12-13T14:39:52.834Z,53.50
2022-12-13T14:42:34.354Z,52.00
2022-12-13T14:45:37.457Z,53.33
2022-12-13T14:48:28.075Z,57.00
2022-12-13T14:50:58.580Z,62.67
2022-12-13T14:53:43.015Z,61.00
2022-12-13T14:56:28.398Z,51.50
2022-12-13T14:59:01.589Z,48.00
2022-12-13T15:01:40.642Z,52.33
2022-12-13T15:04:35.061Z,44.50
2022-12-13T15:07:28.606Z,45.00
2022-12-13T15:10:19.156Z,43.00
2022-12-13T15:12:49.390Z,44.00
2022-12-13T15:15:36.609Z,43.00
2022-12-13T15:18:13.138Z,42.33
2022-12-13T15:20:43.127Z,43.67
2022-12-13T15:23:21.476Z,45.00
2022-12-13T15:26:28.436Z,43.00
2022-12-13T15:29:10.325Z,46.00
2022-12-13T15:31:40.878Z,49.50
2022-12-13T15:34:30.615Z,46.00
2022-12-13T15:37:03.714Z,64.50
2022-12-13T15:39:41.677Z,62.67
2022-12-13T15:42:33.999Z,44.00
2022-12-13T15:45:16.152Z,54.00
2022-12-13T15:47:47.135Z,54.50
2022-12-13T15:50:50.959Z,59.00
2022-12-13T15:53:29.555Z,61.67
2022-12-13T15:56:01.189Z,65.00
2022-12-13T15:58:37.329Z,77.00
2022-12-13T16:01:06.997Z,68.67
2022-12-13T16:03:46.945Z,77.67
2022-12-13T16:06:22.885Z,71.00
2022-12-13T16:09:01.124Z,74.67
2022-12-13T16:12:01.339Z,69.33
2022-12-13T16:14:49.685Z,68.67
2022-12-13T16:17:32.074Z,69.33
2022-12-13T16:20:07.873Z,71.00
2022-12-13T16:22:39.193Z,70.00
2022-12-13T16:25:19.025Z,72.33
2022-12-13T16:27:49.283Z,72.00
2022-12-13T16:31:35.922Z,70.00
2022-12-13T16:34:07.214Z,82.00
2022-12-13T16:36:37.282Z,77.33
2022-12-13T16:39:11.219Z,75.67
2022-12-13T16:41:46.179Z,79.67
2022-12-13T16:44:37.580Z,76.67
2022-12-13T16:47:22.329Z,77.67
2022-12-13T16:49:54.145Z,77.67
2022-12-13T16:52:23.983Z,94.33
2022-12-13T16:54:53.754Z,144.75
2022-12-13T16:57:23.500Z,99.33
2022-12-13T16:59:53.819Z,78.33
2022-12-13T17:02:23.673Z,76.33
2022-12-13T17:04:53.212Z,72.67
2022-12-13T17:07:22.878Z,72.00
2022-12-13T17:09:52.446Z,78.00
2022-12-13T17:12:24.882Z,73.33
2022-12-13T17:14:55.195Z,73.67
2022-12-13T17:17:24.811Z,87.67
2022-12-13T17:19:54.753Z,98.00
2022-12-13T17:22:25.059Z,74.67
2022-12-13T17:24:54.889Z,87.00
2022-12-13T17:27:24.507Z,92.00
2022-12-13T17:29:54.172Z,97.33
2022-12-13T17:32:25.439Z,72.67
2022-12-13T17:34:56.081Z,100.00
2022-12-13T17:37:25.733Z,99.33
2022-12-13T17:39:55.313Z,91.67
2022-12-13T17:42:25.990Z,86.67
2022-12-13T17:44:55.701Z,120.00
2022-12-13T17:47:26.761Z,140.50
2022-12-13T17:49:57.317Z,136.50
2022-12-13T17:52:26.979Z,145.00
2022-12-13T17:54:56.787Z,175.00
2022-12-13T17:57:27.270Z,134.50
2022-12-13T17:59:57.843Z,156.25
2022-12-13T18:02:27.708Z,120.33
2022-12-13T18:04:57.438Z,115.00
2022-12-13T18:07:27.098Z,116.67
2022-12-13T18:09:56.830Z,108.67
2022-12-13T18:12:27.426Z,122.67
2022-12-13T18:14:57.896Z,130.25
2022-12-13T18:17:46.555Z,126.00
2022-12-13T18:20:19.290Z,152.75
2022-12-13T18:22:51.565Z,154.25
2022-12-13T18:25:21.416Z,173.67
2022-12-13T18:27:53.832Z,166.67
2022-12-13T18:30:28.261Z,150.75
2022-12-13T18:32:59.545Z,200.25
2022-12-13T18:35:30.198Z,129.75
2022-12-13T18:37:59.786Z,85.33
2022-12-13T18:40:29.323Z,77.33
2022-12-13T18:42:58.147Z,54.50
2022-12-13T18:45:26.011Z,58.00
2022-12-13T18:47:55.479Z,63.33
2022-12-13T18:50:25.602Z,72.00
2022-12-13T18:52:55.150Z,72.00
2022-12-13T18:55:25.216Z,70.00
2022-12-13T18:57:56.290Z,83.00
2022-12-13T19:00:27.062Z,90.67
2022-12-13T19:02:57.176Z,96.33
2022-12-13T19:05:27.065Z,115.67
2022-12-13T19:07:56.784Z,183.00
2022-12-13T19:10:26.825Z,203.00
2022-12-13T19:12:56.565Z,256.67
2022-12-13T19:15:26.344Z,243.67
2022-12-13T19:17:56.081Z,245.33
2022-12-13T19:20:25.952Z,228.00
2022-12-13T19:22:55.733Z,225.67
2022-12-13T19:25:25.482Z,229.67
2022-12-13T19:27:56.915Z,199.00
2022-12-13T19:30:26.903Z,205.00
2022-12-13T19:32:57.367Z,154.75
2022-12-13T19:35:27.908Z,141.50
2022-12-13T19:37:58.439Z,152.50
2022-12-13T19:40:28.606Z,140.33
2022-12-13T19:42:59.110Z,153.50
2022-12-13T19:45:29.583Z,155.75
2022-12-13T19:47:59.318Z,175.00
2022-12-13T19:50:30.883Z,151.25
2022-12-13T19:53:00.624Z,155.67
2022-12-13T19:55:31.133Z,149.00
2022-12-13T19:58:01.925Z,122.00
2022-12-13T20:00:31.633Z,117.67
2022-12-13T20:03:01.377Z,172.67
2022-12-13T20:05:31.148Z,136.00
2022-12-13T20:08:01.744Z,156.50
2022-12-13T20:10:35.249Z,131.50
2022-12-13T20:13:06.187Z,172.75
2022-12-13T20:15:36.695Z,168.00
2022-12-13T20:18:06.562Z,244.00
2022-12-13T20:21:02.424Z,158.25
2022-12-13T20:23:27.104Z,170.00
2022-12-13T20:26:08.013Z,191.33
2022-12-13T20:28:38.575Z,208.67
2022-12-13T20:31:14.683Z,116.00
2022-12-13T20:33:44.560Z,128.33
2022-12-13T20:36:24.813Z,71.17
2022-12-13T20:39:01.833Z,89.67
2022-12-13T20:41:34.725Z,69.00
2022-12-13T20:44:10.748Z,60.67
2022-12-13T20:46:40.937Z,85.67
2022-12-13T20:49:10.847Z,75.33
2022-12-13T20:51:42.194Z,72.33
2022-12-13T20:54:11.851Z,80.00
2022-12-13T20:56:41.818Z,117.67
2022-12-13T20:59:14.743Z,104.00
2022-12-13T21:01:48.834Z,95.33
2022-12-13T21:04:19.148Z,76.33
2022-12-13T21:06:49.002Z,82.67
2022-12-13T21:09:18.736Z,87.00
2022-12-13T21:11:50.366Z,87.67
2022-12-13T21:14:28.562Z,89.00
2022-12-13T21:17:09.743Z,91.67
2022-12-13T21:19:41.061Z,142.67
2022-12-13T21:22:10.764Z,97.67
2022-12-13T21:24:40.553Z,111.33
2022-12-13T21:27:10.201Z,87.00
2022-12-13T21:29:38.827Z,69.00
2022-12-13T21:32:08.647Z,69.67
2022-12-13T21:34:38.255Z,65.67
2022-12-13T21:37:06.998Z,59.00
2022-12-13T21:39:36.672Z,67.33
2022-12-13T21:42:06.222Z,57.67
2022-12-13T21:44:34.972Z,51.00
2022-12-13T21:47:13.101Z,114.33
2022-12-13T21:49:48.540Z,48.00
2022-12-13T21:52:18.612Z,97.50
2022-12-13T21:54:47.386Z,63.00
2022-12-13T21:57:35.513Z,64.33
2022-12-13T22:00:06.442Z,97.67
2022-12-13T22:02:36.117Z,69.33
2022-12-13T22:05:06.887Z,116.67
2022-12-13T22:07:35.611Z,66.00
2022-12-13T22:10:05.938Z,122.00
2022-12-13T22:12:40.888Z,76.00
2022-12-13T22:15:15.644Z,127.33
2022-12-13T22:17:45.452Z,84.33
2022-12-13T22:20:15.923Z,76.00
2022-12-13T22:22:48.652Z,67.67
2022-12-13T22:25:18.987Z,105.33
2022-12-13T22:27:47.753Z,71.20
2022-12-13T22:30:17.452Z,67.67
2022-12-13T22:32:47.137Z,66.67
2022-12-13T22:35:16.900Z,72.33
2022-12-13T22:37:50.122Z,69.33
2022-12-13T22:40:19.707Z,69.00
2022-12-13T22:42:49.286Z,70.00
2022-12-13T22:45:18.916Z,66.33
2022-12-13T22:47:47.491Z,62.33
2022-12-13T22:50:20.258Z,64.00
2022-12-13T22:52:49.789Z,67.00
2022-12-13T22:55:18.510Z,61.00
2022-12-13T22:57:48.522Z,68.33
2022-12-13T23:00:18.717Z,66.67
2022-12-13T23:02:48.592Z,64.33
2022-12-13T23:05:17.579Z,59.00
2022-12-13T23:07:48.570Z,59.33
2022-12-13T23:10:36.042Z,37.33
2022-12-13T23:13:04.789Z,42.33
2022-12-13T23:15:38.872Z,69.67
2022-12-13T23:18:08.417Z,59.33
2022-12-13T23:20:38.009Z,58.67
2022-12-13T23:23:07.604Z,61.00
2022-12-13T23:25:36.181Z,57.33
2022-12-13T23:28:05.448Z,44.00
2022-12-13T23:30:37.319Z,59.67
2022-12-13T23:33:06.107Z,51.50
2022-12-13T23:35:35.754Z,72.33
2022-12-13T23:38:05.285Z,66.67
2022-12-13T23:40:33.999Z,60.00
2022-12-13T23:43:02.567Z,57.33
2022-12-13T23:45:31.238Z,58.33
2022-12-13T23:48:00.801Z,60.67
2022-12-13T23:50:30.671Z,66.33
2022-12-13T23:53:00.159Z,60.67
2022-12-13T23:55:29.658Z,63.67
2022-12-13T23:57:58.202Z,59.67
